Porfirio, Texas
Current Conditions -  °F | °C
As of 12:15 PM on Monday 22 Dec 2014 (Local Time) from KEBG Reporting Station
Overcast Overcast  
Wind Chill: 68°   Ceiling: 1100
Heat Index: 68°   Visibility: 10mi
Dew Point: 60°   Wind: 8mph
Humidity: 76%   Direction: 220°SW
Pressure: 29.76"   Gusts: NA
Location:  26.5112°N, 97.8502°W
Report Text: KEBG 221815Z AUTO 22007KT 10SM OVC011 20/16 A2976 RMK AO2 T02010158
Loading
Personal Weather Stations






























Interactive Weather Map New forecast layout! Learn more

10-Day Weather Forecast

Advertisements
Track Severe Weather on mobile